Accueil
METAR-TAF:

METAR-TAF

Aéroports :

Umiujaq, Québec, Canada

latitude: 56-32N, longitude: 076-31W, altitude: 71 m

Observation

Le bulletin a été fait il y a 3 heures et 46 minutes, à 21:00 UTC
Vent 13 kt de nord/nord-ouest avec des rafales jusqu'à 19 kt
Température -2°C
Humidité 93%
Pression 1017 hPa
Visibilité: 24.1 km
Ciel couvert à une hauteur de 600 ft

METAR: CYMU 232100Z 34013G19KT 15SM OVC006 M02/M03 A3003 RMK ST8 LAST STFD OBS/NEXT 24 `1200Z SLP178

Heure: 20:46 (00:46 UTC)


TAF: absent

Observations et prévisions météorologiques de plus de 4000 aéroports (messages METAR et TAF).

Les stations disponibles sont représentées par des disques jaunes et rouges sur la carte.

Passer la souris dessus pour voir le nom de la station.

Cliquer dessus pour voir les observations et prévisions météorologiques.

Pour changer de carte: cliquez sur les boutons verts avec une croix noire pour zoomer, sur le bouton vert avec un tiret pour effectuer un zoom arrière, ou sur les flèches vertes pour les cartes adjacentes.


METAR-TAF: